North Conway, New Hampshire
Current Conditions -  °F | °C
As of 6:01 PM on Wednesday 26 Nov 2014 (Local Time) from KIZG Reporting Station
Moderate Snow Moderate Snow  
Wind Chill: -3°   Ceiling: 400
Heat Index:   Visibility: 0.5mi
Dew Point: -1°   Wind: 5mph
Humidity: 92%   Direction: 350°N
Pressure: 30.02"   Gusts: NA
Location:  44.05°N, 71.13°W
Report Text: KIZG 262301Z AUTO 35004KT 1/2SM SN FG VV004 00/M01 A3002 RMK AO2 P0002 T00001011
Loading
Personal Weather Stations






























Interactive Weather Map New forecast layout! Learn more

10-Day Weather Forecast

Advertisements
Track Severe Weather on mobile